createdAt,value
2022-08-22T00:01:35.487Z,1008.161
2022-08-22T00:06:48.017Z,1008.224
2022-08-22T00:12:00.445Z,1008.185
2022-08-22T00:17:12.893Z,1008.18
2022-08-22T00:22:25.166Z,1008.105
2022-08-22T00:27:37.394Z,1008.152
2022-08-22T00:32:49.601Z,1008.062
2022-08-22T00:38:01.893Z,1008.122
2022-08-22T00:43:14.254Z,1008.199
2022-08-22T00:48:26.527Z,1008.202
2022-08-22T00:53:38.800Z,1008.09
2022-08-22T00:58:51.151Z,1008.118
2022-08-22T01:04:03.402Z,1008.11
2022-08-22T01:09:15.666Z,1008.165
2022-08-22T01:14:34.129Z,1008.239
2022-08-22T01:19:40.409Z,1008.351
2022-08-22T01:24:52.642Z,1008.333
2022-08-22T01:30:04.838Z,1008.396
2022-08-22T01:35:17.181Z,1008.416
2022-08-22T01:40:29.394Z,1008.45
2022-08-22T01:45:41.749Z,1008.475
2022-08-22T01:50:54.054Z,1008.405
2022-08-22T01:56:06.514Z,1008.417
2022-08-22T02:01:18.868Z,1008.395
2022-08-22T02:06:31.016Z,1008.366
2022-08-22T02:11:43.544Z,1008.348
2022-08-22T02:16:56.113Z,1008.392
2022-08-22T02:22:08.611Z,1008.397
2022-08-22T02:27:20.729Z,1008.399
2022-08-22T02:32:32.854Z,1008.369
2022-08-22T02:37:45.369Z,1008.363
2022-08-22T02:42:57.501Z,1008.305
2022-08-22T02:48:09.842Z,1008.303
2022-08-22T02:53:22.258Z,1008.245
2022-08-22T02:58:34.790Z,1008.237
2022-08-22T03:03:47.112Z,1008.212
2022-08-22T03:08:59.333Z,1008.245
2022-08-22T03:14:11.551Z,1008.277
2022-08-22T03:19:23.952Z,1008.262
2022-08-22T03:24:36.094Z,1008.219
2022-08-22T03:29:48.449Z,1008.162
2022-08-22T03:35:00.665Z,1008.165
2022-08-22T03:40:13.104Z,1008.187
2022-08-22T03:45:25.213Z,1008.189
2022-08-22T03:50:37.525Z,1008.203
2022-08-22T03:55:49.905Z,1008.213
2022-08-22T04:01:02.389Z,1008.218
2022-08-22T04:06:14.648Z,1008.236
2022-08-22T04:11:27.032Z,1008.325
2022-08-22T04:16:39.403Z,1008.361
2022-08-22T04:21:52.997Z,1008.39
2022-08-22T04:27:05.334Z,1008.447
2022-08-22T04:32:17.801Z,1008.498
2022-08-22T04:37:30.144Z,1008.478
2022-08-22T04:42:42.473Z,1008.556
2022-08-22T04:47:55.147Z,1008.562
2022-08-22T04:53:07.547Z,1008.607
2022-08-22T04:58:20.258Z,1008.638
2022-08-22T05:03:32.790Z,1008.713
2022-08-22T05:08:45.111Z,1008.815
2022-08-22T05:13:57.840Z,1008.898
2022-08-22T05:19:14.405Z,1008.93
2022-08-22T05:24:22.792Z,1008.903
2022-08-22T05:29:35.143Z,1008.925
2022-08-22T05:34:47.652Z,1008.961
2022-08-22T05:40:00.405Z,1009.023
2022-08-22T05:45:12.641Z,1009.103
2022-08-22T05:50:25.319Z,1009.09
2022-08-22T05:55:37.859Z,1009.085
2022-08-22T06:00:50.178Z,1009.129
2022-08-22T06:06:02.549Z,1009.166
2022-08-22T06:11:14.931Z,1009.174
2022-08-22T06:16:27.486Z,1009.195
2022-08-22T06:21:40.270Z,1009.236
2022-08-22T06:26:52.806Z,1009.242
2022-08-22T06:32:05.136Z,1009.283
2022-08-22T06:37:17.379Z,1009.316
2022-08-22T06:42:29.887Z,1009.368
2022-08-22T06:47:43.521Z,1009.399
2022-08-22T06:52:54.775Z,1009.415
2022-08-22T06:58:07.058Z,1009.471
2022-08-22T07:03:19.413Z,1009.506
2022-08-22T07:08:33.998Z,1009.536
2022-08-22T07:13:44.042Z,1009.606
2022-08-22T07:18:56.596Z,1009.552
2022-08-22T07:24:09.133Z,1009.664
2022-08-22T07:29:21.626Z,1009.681
2022-08-22T07:34:34.210Z,1009.703
2022-08-22T07:39:46.437Z,1009.667
2022-08-22T07:44:58.985Z,1009.661
2022-08-22T07:50:11.115Z,1009.704
2022-08-22T07:55:23.466Z,1009.723
2022-08-22T08:00:35.879Z,1009.699
2022-08-22T08:05:48.193Z,1009.691
2022-08-22T08:11:00.724Z,1009.722
2022-08-22T08:16:13.159Z,1009.685
2022-08-22T08:21:25.759Z,1009.724
2022-08-22T08:26:38.131Z,1009.78
2022-08-22T08:31:50.542Z,1009.718
2022-08-22T08:37:02.821Z,1009.737
2022-08-22T08:42:15.414Z,1009.772
2022-08-22T08:47:27.920Z,1009.718
2022-08-22T08:52:40.455Z,1009.64
2022-08-22T08:57:53.001Z,1009.631
2022-08-22T09:03:07.208Z,1009.677
2022-08-22T09:08:18.493Z,1009.703
2022-08-22T09:13:34.484Z,1009.698
2022-08-22T09:18:42.567Z,1009.784
2022-08-22T09:23:55.010Z,1009.781
2022-08-22T09:29:07.705Z,1009.797
2022-08-22T09:34:23.927Z,1009.795
2022-08-22T09:39:32.332Z,1009.854
2022-08-22T09:44:44.686Z,1009.86
2022-08-22T09:49:57.009Z,1009.812
2022-08-22T09:55:09.336Z,1009.795
2022-08-22T10:00:22.070Z,1009.844
2022-08-22T10:05:35.071Z,1009.84
2022-08-22T10:10:46.286Z,1009.862
2022-08-22T10:15:58.737Z,1009.87
2022-08-22T10:21:11.172Z,1009.817
2022-08-22T10:26:25.751Z,1009.881
2022-08-22T10:31:41.180Z,1009.865
2022-08-22T10:36:48.346Z,1009.866
2022-08-22T10:42:00.669Z,1009.894
2022-08-22T10:47:13.094Z,1009.816
2022-08-22T10:52:25.316Z,1009.887
2022-08-22T10:57:37.848Z,1009.821
2022-08-22T11:02:52.351Z,1009.872
2022-08-22T11:08:02.521Z,1009.838
2022-08-22T11:13:14.897Z,1009.812
2022-08-22T11:18:27.746Z,1009.828
2022-08-22T11:23:40.577Z,1009.829
2022-08-22T11:28:52.920Z,1009.743
2022-08-22T11:34:05.170Z,1009.764
2022-08-22T11:39:18.491Z,1009.856
2022-08-22T11:44:30.206Z,1009.787
2022-08-22T11:49:43.516Z,1009.737
2022-08-22T11:54:55.628Z,1009.641
2022-08-22T12:00:08.081Z,1009.715
2022-08-22T12:05:24.664Z,1009.698
2022-08-22T12:10:32.630Z,1009.6
2022-08-22T12:15:45.146Z,1009.658
2022-08-22T12:20:57.328Z,1009.649
2022-08-22T12:26:10.845Z,1009.56
2022-08-22T12:31:21.887Z,1009.495
2022-08-22T12:36:34.137Z,1009.385
2022-08-22T12:41:46.597Z,1009.398
2022-08-22T12:46:58.766Z,1009.288
2022-08-22T12:52:10.940Z,1009.354
2022-08-22T12:57:23.637Z,1009.306
2022-08-22T13:02:35.653Z,1009.332
2022-08-22T13:07:48.131Z,1009.253
2022-08-22T13:13:00.523Z,1009.295
2022-08-22T13:18:28.620Z,1009.221
2022-08-22T13:23:25.275Z,1009.185
2022-08-22T13:28:37.679Z,1009.247
2022-08-22T13:33:50.130Z,1009.297
2022-08-22T13:39:04.203Z,1009.239
2022-08-22T13:44:16.696Z,1009.301
2022-08-22T13:49:29.049Z,1009.28
2022-08-22T13:54:41.346Z,1009.216
2022-08-22T13:59:59.555Z,1009.2
2022-08-22T14:05:06.112Z,1009.17
2022-08-22T14:10:18.423Z,1009.142
2022-08-22T14:15:32.076Z,1009.082
2022-08-22T14:20:43.000Z,1009.072
2022-08-22T14:25:55.280Z,1009.066
2022-08-22T14:31:07.607Z,1009.107
2022-08-22T14:36:19.948Z,1009.066
2022-08-22T14:41:52.263Z,1009.079
2022-08-22T14:46:44.790Z,1009.048
2022-08-22T14:51:56.936Z,1009.001
2022-08-22T14:57:10.239Z,1009.039
2022-08-22T15:02:21.523Z,1008.999
2022-08-22T15:07:33.877Z,1008.995
2022-08-22T15:12:46.068Z,1008.987
2022-08-22T15:17:58.368Z,1009.08
2022-08-22T15:23:10.620Z,1009.095
2022-08-22T15:28:23.044Z,1009.069
2022-08-22T15:33:35.365Z,1009.01
2022-08-22T15:38:48.038Z,1009.083
2022-08-22T15:44:00.419Z,1008.994
2022-08-22T15:49:12.628Z,1008.957
2022-08-22T15:54:25.613Z,1009.046
2022-08-22T15:59:48.279Z,1009.073
2022-08-22T16:04:49.694Z,1009.038
2022-08-22T16:10:02.026Z,1008.994
2022-08-22T16:15:14.283Z,1008.98
2022-08-22T16:20:26.553Z,1008.928
2022-08-22T16:25:38.805Z,1008.905
2022-08-22T16:30:51.245Z,1008.98
2022-08-22T16:36:03.442Z,1009.005
2022-08-22T16:41:15.685Z,1008.967
2022-08-22T16:46:28.016Z,1008.861
2022-08-22T16:51:40.311Z,1008.947
2022-08-22T16:56:52.765Z,1009.018
2022-08-22T17:02:05.251Z,1009.067
2022-08-22T17:07:17.498Z,1009.114
2022-08-22T17:12:29.823Z,1008.977
2022-08-22T17:17:42.168Z,1008.956
2022-08-22T17:22:54.573Z,1008.954
2022-08-22T17:28:06.936Z,1009.105
2022-08-22T17:33:19.389Z,1009.089
2022-08-22T17:38:31.652Z,1009.107
2022-08-22T17:43:44.642Z,1009.159
2022-08-22T17:48:56.158Z,1009.215
2022-08-22T17:54:08.293Z,1009.29
2022-08-22T17:59:21.020Z,1009.357
2022-08-22T18:04:32.827Z,1009.391
2022-08-22T18:09:45.276Z,1009.476
2022-08-22T18:14:57.601Z,1009.525
2022-08-22T18:20:09.843Z,1009.533
2022-08-22T18:25:22.138Z,1009.559
2022-08-22T18:30:34.961Z,1009.576
2022-08-22T18:35:48.595Z,1009.576
2022-08-22T18:40:59.630Z,1009.593
2022-08-22T18:46:11.833Z,1009.554
2022-08-22T18:51:24.897Z,1009.557
2022-08-22T18:56:36.487Z,1009.635
2022-08-22T19:01:48.854Z,1009.595
2022-08-22T19:07:01.035Z,1009.651
2022-08-22T19:12:13.366Z,1009.678
2022-08-22T19:17:25.686Z,1009.67
2022-08-22T19:22:38.232Z,1009.737
2022-08-22T19:27:50.658Z,1009.782
2022-08-22T19:33:03.083Z,1009.797
2022-08-22T19:38:15.514Z,1009.868
2022-08-22T19:43:27.821Z,1009.861
2022-08-22T19:48:40.046Z,1009.802
2022-08-22T19:53:52.427Z,1009.82
2022-08-22T19:59:04.759Z,1009.827
2022-08-22T20:04:17.119Z,1009.782
2022-08-22T20:09:29.554Z,1009.846
2022-08-22T20:14:41.977Z,1009.964
2022-08-22T20:25:07.030Z,1009.967
2022-08-22T20:30:19.446Z,1009.935
2022-08-22T20:35:31.943Z,1009.895
2022-08-22T20:40:56.885Z,1009.938
2022-08-22T20:45:56.933Z,1009.867
2022-08-22T20:51:09.229Z,1009.888
2022-08-22T20:56:21.555Z,1009.962
2022-08-22T21:01:34.120Z,1009.94
2022-08-22T21:06:46.399Z,1009.942
2022-08-22T21:11:58.896Z,1009.91
2022-08-22T21:17:11.375Z,1009.814
2022-08-22T21:22:23.951Z,1009.833
2022-08-22T21:27:36.131Z,1009.843
2022-08-22T21:32:51.105Z,1009.967
2022-08-22T21:38:01.227Z,1010.016
2022-08-22T21:43:13.320Z,1010.106
2022-08-22T21:48:25.713Z,1010.092
2022-08-22T21:53:38.074Z,1010.066
2022-08-22T21:58:50.483Z,1010.033
2022-08-22T22:04:02.972Z,1010.068
2022-08-22T22:09:15.413Z,1010.089
2022-08-22T22:14:27.655Z,1010.009
2022-08-22T22:19:40.100Z,1010.064
2022-08-22T22:24:52.806Z,1010.011
2022-08-22T22:30:05.203Z,1010.07
2022-08-22T22:35:17.673Z,1010.052
2022-08-22T22:40:30.156Z,1009.959
2022-08-22T22:45:42.294Z,1009.923
2022-08-22T22:50:55.267Z,1009.857
2022-08-22T22:56:07.709Z,1009.895
2022-08-22T23:01:20.310Z,1009.94
2022-08-22T23:06:32.869Z,1009.957
2022-08-22T23:11:45.160Z,1009.937
2022-08-22T23:16:57.376Z,1009.992
2022-08-22T23:22:09.826Z,1009.964
2022-08-22T23:27:22.123Z,1009.948
2022-08-22T23:32:34.339Z,1009.94
2022-08-22T23:37:46.464Z,1009.95
2022-08-22T23:42:58.877Z,1009.927
2022-08-22T23:48:11.263Z,1009.811
2022-08-22T23:53:23.654Z,1009.82
2022-08-22T23:58:35.866Z,1009.781
